createdAt,value
2023-05-14T00:00:32.737Z,25.00
2023-05-14T00:01:32.802Z,25.00
2023-05-14T00:02:32.947Z,25.00
2023-05-14T00:03:32.971Z,0.00
2023-05-14T00:04:33.094Z,0.00
2023-05-14T00:05:33.014Z,0.00
2023-05-14T00:06:33.437Z,0.00
2023-05-14T00:07:33.442Z,0.00
2023-05-14T00:08:33.449Z,0.00
2023-05-14T00:09:33.524Z,5.03
2023-05-14T00:10:33.453Z,23.27
2023-05-14T00:11:33.437Z,25.12
2023-05-14T00:12:33.469Z,26.77
2023-05-14T00:13:33.427Z,24.59
2023-05-14T00:14:33.436Z,26.31
2023-05-14T00:15:34.556Z,25.00
2023-05-14T00:16:33.478Z,25.00
2023-05-14T00:17:33.475Z,25.08
2023-05-14T00:18:33.543Z,25.53
2023-05-14T00:19:33.450Z,25.00
2023-05-14T00:20:33.431Z,26.90
2023-05-14T00:21:33.442Z,25.96
2023-05-14T00:22:33.486Z,25.00
2023-05-14T00:23:33.430Z,25.66
2023-05-14T00:24:33.443Z,25.00
2023-05-14T00:25:33.431Z,26.19
2023-05-14T00:26:33.462Z,27.26
2023-05-14T00:27:33.430Z,25.21
2023-05-14T00:28:33.493Z,27.51
2023-05-14T00:29:33.428Z,26.23
2023-05-14T00:30:33.442Z,26.81
2023-05-14T00:31:33.472Z,27.63
2023-05-14T00:32:33.463Z,27.45
2023-05-14T00:33:33.443Z,25.16
2023-05-14T00:34:33.437Z,25.67
2023-05-14T00:35:33.438Z,25.60
2023-05-14T00:36:33.440Z,27.33
2023-05-14T00:37:33.453Z,26.89
2023-05-14T00:38:33.431Z,26.03
2023-05-14T00:39:33.430Z,26.20
2023-05-14T00:40:33.443Z,27.76
2023-05-14T00:41:33.450Z,27.51
2023-05-14T00:42:33.450Z,26.17
2023-05-14T00:43:33.436Z,25.00
2023-05-14T00:44:33.487Z,26.63
2023-05-14T00:45:33.438Z,25.58
2023-05-14T00:46:33.514Z,27.13
2023-05-14T00:47:33.480Z,26.69
2023-05-14T00:48:33.447Z,29.71
2023-05-14T00:49:33.441Z,26.62
2023-05-14T00:50:33.450Z,27.91
2023-05-14T00:51:33.431Z,25.00
2023-05-14T00:52:33.439Z,26.42
2023-05-14T00:53:33.451Z,26.65
2023-05-14T00:54:33.429Z,27.03
2023-05-14T00:55:33.433Z,27.02
2023-05-14T00:56:33.449Z,25.00
2023-05-14T00:57:33.446Z,27.40
2023-05-14T00:58:33.466Z,25.37
2023-05-14T00:59:33.438Z,25.16
2023-05-14T01:00:33.520Z,27.97
2023-05-14T01:01:33.497Z,28.79
2023-05-14T01:02:33.545Z,31.12
2023-05-14T01:03:33.587Z,29.58
2023-05-14T01:04:33.432Z,30.21
2023-05-14T01:05:33.436Z,25.00
2023-05-14T01:06:33.436Z,28.85
2023-05-14T01:07:33.440Z,27.16
2023-05-14T01:08:33.436Z,27.32
2023-05-14T01:09:33.436Z,29.08
2023-05-14T01:10:33.430Z,26.16
2023-05-14T01:11:33.494Z,25.43
2023-05-14T01:12:33.440Z,26.41
2023-05-14T01:13:33.426Z,30.38
2023-05-14T01:14:33.431Z,30.04
2023-05-14T01:15:33.575Z,28.45
2023-05-14T01:16:33.523Z,26.38
2023-05-14T01:17:33.445Z,25.62
2023-05-14T01:18:33.522Z,27.68
2023-05-14T01:19:33.423Z,28.20
2023-05-14T01:20:33.439Z,28.34
2023-05-14T01:21:33.425Z,27.92
2023-05-14T01:22:33.425Z,29.80
2023-05-14T01:23:33.431Z,26.85
2023-05-14T01:24:33.431Z,27.75
2023-05-14T01:25:33.435Z,26.38
2023-05-14T01:26:33.442Z,30.35
2023-05-14T01:27:33.461Z,25.75
2023-05-14T01:28:33.446Z,25.15
2023-05-14T01:29:33.420Z,29.31
2023-05-14T01:30:33.428Z,28.86
2023-05-14T01:31:33.493Z,29.60
2023-05-14T01:32:33.483Z,25.18
2023-05-14T01:33:33.429Z,26.80
2023-05-14T01:34:33.428Z,26.79
2023-05-14T01:35:33.427Z,27.35
2023-05-14T01:36:33.427Z,28.30
2023-05-14T01:37:33.420Z,27.84
2023-05-14T01:38:33.420Z,28.46
2023-05-14T01:39:33.436Z,28.88
2023-05-14T01:40:33.429Z,30.70
2023-05-14T01:41:33.433Z,27.77
2023-05-14T01:42:33.419Z,28.36
2023-05-14T01:43:33.448Z,28.58
2023-05-14T01:44:33.424Z,27.76
2023-05-14T01:45:33.427Z,25.84
2023-05-14T01:46:33.611Z,27.62
2023-05-14T01:47:33.451Z,25.48
2023-05-14T01:48:33.442Z,27.65
2023-05-14T01:49:33.419Z,27.75
2023-05-14T01:50:33.460Z,25.37
2023-05-14T01:51:33.426Z,29.12
2023-05-14T01:52:33.417Z,26.20
2023-05-14T01:53:33.418Z,27.17
2023-05-14T01:54:33.418Z,27.19
2023-05-14T01:55:33.424Z,25.63
2023-05-14T01:56:33.421Z,28.20
2023-05-14T01:57:33.425Z,29.99
2023-05-14T01:58:33.436Z,25.81
2023-05-14T01:59:33.435Z,25.86
2023-05-14T02:00:33.418Z,25.71
2023-05-14T02:01:33.469Z,27.41
2023-05-14T02:02:33.436Z,27.36
2023-05-14T02:03:33.486Z,26.51
2023-05-14T02:04:33.450Z,28.72
2023-05-14T02:05:33.424Z,29.00
2023-05-14T02:06:33.421Z,27.11
2023-05-14T02:07:33.426Z,27.38
2023-05-14T02:08:33.425Z,27.06
2023-05-14T02:09:33.429Z,27.31
2023-05-14T02:10:33.425Z,26.38
2023-05-14T02:11:33.419Z,25.64
2023-05-14T02:12:33.416Z,26.25
2023-05-14T02:13:33.416Z,27.90
2023-05-14T02:14:33.425Z,26.81
2023-05-14T02:15:33.427Z,26.81
2023-05-14T02:16:33.481Z,29.40
2023-05-14T02:17:33.585Z,28.57
2023-05-14T02:18:33.525Z,25.00
2023-05-14T02:19:33.422Z,27.99
2023-05-14T02:20:33.742Z,29.44
2023-05-14T02:21:33.417Z,26.57
2023-05-14T02:22:33.426Z,27.47
2023-05-14T02:23:41.164Z,26.85
2023-05-14T02:24:33.496Z,27.20
2023-05-14T02:25:33.428Z,28.22
2023-05-14T02:26:33.434Z,28.42
2023-05-14T02:27:33.421Z,28.44
2023-05-14T02:28:33.419Z,32.32
2023-05-14T02:29:33.420Z,26.60
2023-05-14T02:30:33.432Z,27.65
2023-05-14T02:31:33.455Z,28.27
2023-05-14T02:32:33.487Z,27.09
2023-05-14T02:33:33.444Z,27.18
2023-05-14T02:34:33.425Z,28.30
2023-05-14T02:35:33.426Z,28.26
2023-05-14T02:36:33.446Z,26.93
2023-05-14T02:37:33.441Z,26.14
2023-05-14T02:38:33.425Z,28.03
2023-05-14T02:39:33.436Z,26.44
2023-05-14T02:40:33.429Z,27.70
2023-05-14T02:41:33.423Z,29.39
2023-05-14T02:42:33.424Z,28.97
2023-05-14T02:43:33.424Z,29.02
2023-05-14T02:44:33.422Z,27.39
2023-05-14T02:45:33.426Z,28.28
2023-05-14T02:46:33.502Z,26.46
2023-05-14T02:47:34.775Z,26.12
2023-05-14T02:48:33.457Z,26.41
2023-05-14T02:49:33.442Z,26.95
2023-05-14T02:50:33.427Z,27.36
2023-05-14T02:51:33.378Z,27.29
2023-05-14T02:52:33.381Z,29.43
2023-05-14T02:53:33.025Z,26.69
2023-05-14T02:54:33.025Z,27.86
2023-05-14T02:55:33.001Z,26.60
2023-05-14T02:56:32.998Z,26.58
2023-05-14T02:57:32.996Z,25.86
2023-05-14T02:58:33.003Z,26.10
2023-05-14T02:59:32.968Z,25.90
2023-05-14T03:00:33.006Z,27.62
2023-05-14T03:01:32.952Z,27.03
2023-05-14T03:02:33.019Z,30.41
2023-05-14T03:03:32.942Z,26.88
2023-05-14T03:04:32.932Z,28.55
2023-05-14T03:05:32.923Z,27.39
2023-05-14T03:06:32.916Z,27.26
2023-05-14T03:07:32.899Z,26.56
2023-05-14T03:08:32.924Z,26.50
2023-05-14T03:09:32.899Z,26.79
2023-05-14T03:10:32.925Z,28.55
2023-05-14T03:11:32.875Z,27.59
2023-05-14T03:12:32.871Z,29.03
2023-05-14T03:13:32.868Z,27.51
2023-05-14T03:14:32.855Z,28.71
2023-05-14T03:15:32.846Z,31.34
2023-05-14T03:16:32.873Z,29.06
2023-05-14T03:17:32.967Z,26.69
2023-05-14T03:18:32.865Z,27.51
2023-05-14T03:19:32.849Z,28.63
2023-05-14T03:20:32.820Z,27.61
2023-05-14T03:21:32.816Z,28.93
2023-05-14T03:22:32.806Z,29.56
2023-05-14T03:23:32.799Z,29.68
2023-05-14T03:24:32.937Z,27.54
2023-05-14T03:25:32.805Z,27.67
2023-05-14T03:26:32.814Z,26.59
2023-05-14T03:27:32.776Z,28.28
2023-05-14T03:28:32.770Z,26.16
2023-05-14T03:29:32.758Z,28.76
2023-05-14T03:30:32.799Z,26.44
2023-05-14T03:31:32.750Z,29.64
2023-05-14T03:32:32.799Z,25.27
2023-05-14T03:33:32.730Z,26.66
2023-05-14T03:34:32.742Z,29.16
2023-05-14T03:35:32.792Z,26.38
2023-05-14T03:36:32.720Z,26.48
2023-05-14T03:37:33.426Z,28.73
2023-05-14T03:38:32.693Z,26.19
2023-05-14T03:39:32.702Z,25.42
2023-05-14T03:40:32.716Z,28.33
2023-05-14T03:41:32.689Z,27.66
2023-05-14T03:42:32.681Z,25.85
2023-05-14T03:43:32.667Z,27.36
2023-05-14T03:44:32.662Z,27.01
2023-05-14T03:45:32.666Z,26.00
2023-05-14T03:46:32.650Z,25.44
2023-05-14T03:47:32.717Z,26.15
2023-05-14T03:48:32.686Z,26.34
2023-05-14T03:49:32.638Z,27.02
2023-05-14T03:50:32.635Z,25.65
2023-05-14T03:51:32.653Z,31.84
2023-05-14T03:52:32.622Z,31.25
2023-05-14T03:53:32.677Z,27.84
2023-05-14T03:54:32.635Z,28.15
2023-05-14T03:55:32.656Z,28.41
2023-05-14T03:56:32.682Z,29.28
2023-05-14T03:57:32.673Z,30.19
2023-05-14T03:58:32.677Z,26.51
2023-05-14T03:59:32.690Z,29.09
2023-05-14T04:00:32.715Z,27.23
2023-05-14T04:01:32.731Z,28.05
2023-05-14T04:02:32.846Z,29.11
2023-05-14T04:03:32.963Z,26.51
2023-05-14T04:04:32.801Z,29.60
2023-05-14T04:05:32.802Z,27.61
2023-05-14T04:06:32.828Z,27.76
2023-05-14T04:07:32.840Z,28.74
2023-05-14T04:08:32.861Z,27.37
2023-05-14T04:09:32.871Z,27.66
2023-05-14T04:10:32.887Z,28.95
2023-05-14T04:11:32.908Z,27.37
2023-05-14T04:12:32.954Z,30.16
2023-05-14T04:13:32.929Z,27.75
2023-05-14T04:14:32.935Z,26.49
2023-05-14T04:15:32.964Z,28.06
2023-05-14T04:16:33.024Z,29.03
2023-05-14T04:17:34.995Z,29.59
2023-05-14T04:18:33.007Z,30.96
2023-05-14T04:19:32.976Z,35.46
2023-05-14T04:20:32.969Z,27.12
2023-05-14T04:21:32.954Z,30.89
2023-05-14T04:22:32.949Z,29.84
2023-05-14T04:23:32.936Z,29.30
2023-05-14T04:24:32.944Z,29.37
2023-05-14T04:25:32.928Z,27.66
2023-05-14T04:26:32.923Z,26.51
2023-05-14T04:27:32.906Z,28.19
2023-05-14T04:28:32.924Z,26.30
2023-05-14T04:29:32.893Z,28.87
2023-05-14T04:30:32.887Z,26.39
2023-05-14T04:31:32.917Z,27.43
2023-05-14T04:32:33.787Z,30.33
2023-05-14T04:33:32.873Z,28.66
2023-05-14T04:34:32.867Z,29.38
2023-05-14T04:35:32.854Z,27.18
2023-05-14T04:36:32.876Z,26.49
2023-05-14T04:37:32.841Z,29.64
2023-05-14T04:38:32.838Z,30.06
2023-05-14T04:39:32.834Z,28.40
2023-05-14T04:40:32.815Z,25.49
2023-05-14T04:41:32.812Z,29.26
2023-05-14T04:42:32.816Z,27.85
2023-05-14T04:43:32.800Z,25.90
2023-05-14T04:44:32.820Z,30.19
2023-05-14T04:45:34.342Z,26.32
2023-05-14T04:46:33.056Z,30.25
2023-05-14T04:47:33.395Z,30.90
2023-05-14T04:48:33.418Z,27.79
2023-05-14T04:49:33.428Z,31.76
2023-05-14T04:50:33.419Z,26.92
2023-05-14T04:51:33.424Z,27.62
2023-05-14T04:52:33.419Z,30.39
2023-05-14T04:53:33.411Z,33.45
2023-05-14T04:54:33.432Z,26.39
2023-05-14T04:55:33.423Z,30.89
2023-05-14T04:56:33.449Z,28.63
2023-05-14T04:57:33.460Z,28.71
2023-05-14T04:58:35.131Z,28.78
2023-05-14T04:59:33.436Z,30.89
2023-05-14T05:00:33.510Z,32.14
2023-05-14T05:01:33.522Z,32.34
2023-05-14T05:02:33.472Z,30.71
2023-05-14T05:03:33.505Z,27.29
2023-05-14T05:04:33.461Z,31.17
2023-05-14T05:05:33.424Z,29.14
2023-05-14T05:06:33.432Z,28.25
2023-05-14T05:07:33.431Z,30.63
2023-05-14T05:08:33.421Z,27.50
2023-05-14T05:09:33.425Z,27.78
2023-05-14T05:10:33.435Z,26.14
2023-05-14T05:11:33.422Z,29.64
2023-05-14T05:12:33.420Z,31.90
2023-05-14T05:13:33.424Z,27.34
2023-05-14T05:14:33.415Z,26.83
2023-05-14T05:15:33.426Z,29.93
2023-05-14T05:16:33.480Z,26.78
2023-05-14T05:17:33.383Z,28.86
2023-05-14T05:18:33.891Z,25.01
2023-05-14T05:19:43.073Z,26.10
2023-05-14T05:20:33.008Z,26.60
2023-05-14T05:21:32.990Z,27.57
2023-05-14T05:22:33.005Z,28.75
2023-05-14T05:23:32.969Z,30.43
2023-05-14T05:24:32.962Z,28.80
2023-05-14T05:25:32.961Z,28.23
2023-05-14T05:26:32.953Z,29.42
2023-05-14T05:27:32.966Z,29.32
2023-05-14T05:28:32.944Z,28.60
2023-05-14T05:29:32.931Z,26.95
2023-05-14T05:30:32.919Z,26.30
2023-05-14T05:31:33.514Z,28.18
2023-05-14T05:32:32.946Z,27.50
2023-05-14T05:33:32.909Z,27.63
2023-05-14T05:34:32.901Z,27.07
2023-05-14T05:35:32.888Z,27.00
2023-05-14T05:36:32.883Z,25.84
2023-05-14T05:37:32.876Z,28.72
2023-05-14T05:38:32.882Z,30.26
2023-05-14T05:39:32.884Z,28.25
2023-05-14T05:40:32.859Z,30.08
2023-05-14T05:41:32.849Z,28.54
2023-05-14T05:42:32.839Z,29.52
2023-05-14T05:43:32.834Z,29.29
2023-05-14T05:44:32.822Z,29.29
2023-05-14T05:45:32.813Z,31.36
2023-05-14T05:46:32.859Z,28.54
2023-05-14T05:47:32.835Z,26.58
2023-05-14T05:48:32.913Z,27.15
2023-05-14T05:49:32.789Z,29.75
2023-05-14T05:50:32.775Z,26.34
2023-05-14T05:51:32.783Z,30.55
2023-05-14T05:52:32.767Z,26.41
2023-05-14T05:53:32.758Z,26.86
2023-05-14T05:54:32.756Z,28.00
2023-05-14T05:55:32.753Z,26.84
2023-05-14T05:56:32.741Z,27.76
2023-05-14T05:57:32.750Z,30.36
2023-05-14T05:58:32.726Z,28.72
2023-05-14T05:59:32.730Z,28.58
2023-05-14T06:00:32.729Z,30.15
2023-05-14T06:01:32.709Z,30.02
2023-05-14T06:02:32.849Z,28.17
2023-05-14T06:03:32.693Z,30.31
2023-05-14T06:04:32.711Z,27.05
2023-05-14T06:05:32.718Z,29.74
2023-05-14T06:06:32.714Z,26.35
2023-05-14T06:07:32.683Z,27.76
2023-05-14T06:08:32.655Z,27.97
2023-05-14T06:09:32.648Z,27.67
2023-05-14T06:10:32.642Z,28.83
2023-05-14T06:11:32.668Z,27.10
2023-05-14T06:12:32.638Z,27.22
2023-05-14T06:13:32.623Z,25.20
2023-05-14T06:14:32.620Z,29.17
2023-05-14T06:15:32.612Z,29.54
2023-05-14T06:16:32.648Z,30.24
2023-05-14T06:17:32.638Z,29.96
2023-05-14T06:18:32.622Z,27.62
2023-05-14T06:19:32.603Z,27.57
2023-05-14T06:20:32.616Z,29.59
2023-05-14T06:21:32.594Z,28.24
2023-05-14T06:22:32.603Z,28.49
2023-05-14T06:23:32.629Z,29.73
2023-05-14T06:24:32.632Z,28.74
2023-05-14T06:25:32.629Z,31.06
2023-05-14T06:26:32.664Z,29.39
2023-05-14T06:27:32.645Z,28.87
2023-05-14T06:28:32.661Z,28.23
2023-05-14T06:29:32.660Z,28.53
2023-05-14T06:30:32.664Z,27.47
2023-05-14T06:31:32.769Z,25.59
2023-05-14T06:32:32.749Z,28.39
2023-05-14T06:33:32.699Z,28.86
2023-05-14T06:34:32.708Z,30.10
2023-05-14T06:35:32.708Z,27.08
2023-05-14T06:36:32.741Z,27.32
2023-05-14T06:37:32.720Z,29.34
2023-05-14T06:38:32.728Z,27.84
2023-05-14T06:39:32.728Z,27.13
2023-05-14T06:40:32.730Z,30.42
2023-05-14T06:41:32.739Z,30.76
2023-05-14T06:42:32.741Z,28.08
2023-05-14T06:43:32.759Z,29.69
2023-05-14T06:44:32.751Z,27.24
2023-05-14T06:45:33.351Z,30.23
2023-05-14T06:46:32.739Z,27.43
2023-05-14T06:47:32.755Z,29.56
2023-05-14T06:48:32.795Z,30.61
2023-05-14T06:49:32.748Z,27.44
2023-05-14T06:50:32.751Z,27.07
2023-05-14T06:51:32.758Z,30.17
2023-05-14T06:52:32.770Z,28.93
2023-05-14T06:53:32.751Z,28.53
2023-05-14T06:54:32.739Z,29.63
2023-05-14T06:55:32.743Z,27.49
2023-05-14T06:56:32.747Z,28.14
2023-05-14T06:57:32.753Z,29.25
2023-05-14T06:58:32.762Z,26.47
2023-05-14T06:59:32.748Z,30.02
2023-05-14T07:00:32.743Z,27.92
2023-05-14T07:01:32.792Z,27.01
2023-05-14T07:02:32.778Z,29.02
2023-05-14T07:03:32.759Z,26.71
2023-05-14T07:04:32.760Z,31.04
2023-05-14T07:05:32.753Z,28.58
2023-05-14T07:06:32.762Z,25.75
2023-05-14T07:07:32.792Z,30.71
2023-05-14T07:08:32.768Z,28.25
2023-05-14T07:09:32.749Z,26.53
2023-05-14T07:10:32.750Z,26.77
2023-05-14T07:11:32.741Z,27.22
2023-05-14T07:12:32.744Z,25.97
2023-05-14T07:13:32.742Z,24.59
2023-05-14T07:14:32.741Z,28.42
2023-05-14T07:15:32.728Z,31.24
2023-05-14T07:16:32.807Z,27.44
2023-05-14T07:17:32.747Z,30.92
2023-05-14T07:18:32.750Z,27.90
2023-05-14T07:19:32.723Z,27.65
2023-05-14T07:20:33.442Z,27.92
2023-05-14T07:21:32.725Z,28.55
2023-05-14T07:22:32.730Z,27.50
2023-05-14T07:23:32.724Z,29.74
2023-05-14T07:24:32.763Z,30.54
2023-05-14T07:25:32.744Z,32.11
2023-05-14T07:26:32.735Z,28.16
2023-05-14T07:27:32.728Z,28.68
2023-05-14T07:28:32.736Z,29.83
2023-05-14T07:29:32.731Z,29.28
2023-05-14T07:30:32.745Z,30.19
2023-05-14T07:31:32.814Z,29.77
2023-05-14T07:32:32.765Z,30.29
2023-05-14T07:33:32.739Z,30.04
2023-05-14T07:34:32.728Z,29.09
2023-05-14T07:35:32.747Z,29.32
2023-05-14T07:36:32.744Z,29.32
2023-05-14T07:37:32.758Z,29.86
2023-05-14T07:38:32.734Z,30.49
2023-05-14T07:39:32.736Z,30.54
2023-05-14T07:40:32.765Z,29.47
2023-05-14T07:41:32.739Z,27.42
2023-05-14T07:42:36.525Z,28.96
2023-05-14T07:43:32.765Z,29.26
2023-05-14T07:44:32.754Z,29.70
2023-05-14T07:45:32.868Z,29.48
2023-05-14T07:46:32.775Z,29.65
2023-05-14T07:47:33.078Z,28.42
2023-05-14T07:48:32.941Z,27.05
2023-05-14T07:49:32.827Z,29.49
2023-05-14T07:50:32.849Z,28.40
2023-05-14T07:51:32.867Z,28.45
2023-05-14T07:52:32.900Z,30.35
2023-05-14T07:53:32.911Z,30.16
2023-05-14T07:54:32.930Z,28.21
2023-05-14T07:55:33.030Z,29.01
2023-05-14T07:56:33.000Z,27.87
2023-05-14T07:57:32.993Z,28.88
2023-05-14T07:58:32.995Z,29.92
2023-05-14T07:59:33.019Z,29.30
2023-05-14T08:00:33.014Z,28.22
2023-05-14T08:01:33.425Z,27.81
2023-05-14T08:02:33.152Z,27.36
2023-05-14T08:03:33.136Z,25.83
2023-05-14T08:04:33.542Z,27.72
2023-05-14T08:05:33.431Z,28.22
2023-05-14T08:06:33.067Z,28.62
2023-05-14T08:07:33.064Z,25.90
2023-05-14T08:08:33.433Z,29.76
2023-05-14T08:09:33.432Z,26.26
2023-05-14T08:10:33.472Z,30.31
2023-05-14T08:11:33.538Z,32.88
2023-05-14T08:12:33.522Z,29.53
2023-05-14T08:13:33.505Z,28.57
2023-05-14T08:14:33.514Z,28.62
2023-05-14T08:15:33.480Z,30.85
2023-05-14T08:16:33.541Z,29.04
2023-05-14T08:17:33.540Z,30.53
2023-05-14T08:18:33.503Z,28.22
2023-05-14T08:19:33.492Z,29.50
2023-05-14T08:20:33.512Z,31.63
2023-05-14T08:21:33.490Z,30.70
2023-05-14T08:22:33.514Z,28.19
2023-05-14T08:23:33.491Z,29.04
2023-05-14T08:24:33.496Z,28.20
2023-05-14T08:25:33.516Z,28.77
2023-05-14T08:26:33.505Z,30.30
2023-05-14T08:27:33.559Z,31.77
2023-05-14T08:28:33.522Z,30.38
2023-05-14T08:29:33.498Z,30.39
2023-05-14T08:30:33.587Z,29.08
2023-05-14T08:31:33.559Z,32.13
2023-05-14T08:32:33.525Z,30.06
2023-05-14T08:33:33.549Z,30.56
2023-05-14T08:34:33.581Z,31.44
2023-05-14T08:35:33.586Z,31.32
2023-05-14T08:36:33.624Z,27.70
2023-05-14T08:37:33.681Z,31.90
2023-05-14T08:38:33.715Z,30.05
2023-05-14T08:39:33.769Z,30.56
2023-05-14T08:40:33.785Z,30.02
2023-05-14T08:41:33.802Z,29.58
2023-05-14T08:42:33.833Z,29.70
2023-05-14T08:43:33.863Z,30.39
2023-05-14T08:44:33.914Z,27.47
2023-05-14T08:45:33.993Z,30.58
2023-05-14T08:46:33.995Z,31.22
2023-05-14T08:47:34.472Z,32.10
2023-05-14T08:48:34.660Z,31.34
2023-05-14T08:49:34.434Z,31.20
2023-05-14T08:50:34.439Z,32.94
2023-05-14T08:51:34.433Z,27.77
2023-05-14T08:52:34.484Z,30.67
2023-05-14T08:53:34.441Z,28.97
2023-05-14T08:54:34.517Z,31.72
2023-05-14T08:55:34.489Z,31.62
2023-05-14T08:56:34.545Z,27.34
2023-05-14T08:57:34.586Z,29.52
2023-05-14T08:58:34.600Z,29.83
2023-05-14T08:59:34.648Z,29.13
2023-05-14T09:00:34.727Z,28.90
2023-05-14T09:01:34.753Z,28.95
2023-05-14T09:02:34.861Z,28.71
2023-05-14T09:03:34.921Z,30.13
2023-05-14T09:04:35.088Z,28.90
2023-05-14T09:05:34.974Z,28.47
2023-05-14T09:06:35.035Z,31.16
2023-05-14T09:07:35.100Z,31.61
2023-05-14T09:08:35.164Z,29.62
2023-05-14T09:09:35.219Z,28.18
2023-05-14T09:10:35.277Z,28.07
2023-05-14T09:11:35.348Z,29.01
2023-05-14T09:12:35.390Z,25.13
2023-05-14T09:13:35.450Z,28.36
2023-05-14T09:14:35.505Z,27.34
2023-05-14T09:15:35.569Z,30.36
2023-05-14T09:16:35.710Z,25.55
2023-05-14T09:17:35.749Z,25.00
2023-05-14T09:18:35.797Z,31.70
2023-05-14T09:19:35.785Z,26.52
2023-05-14T09:20:35.848Z,28.11
2023-05-14T09:21:35.896Z,27.93
2023-05-14T09:22:35.957Z,30.28
2023-05-14T09:23:36.046Z,28.46
2023-05-14T09:24:36.098Z,30.18
2023-05-14T09:25:36.145Z,27.65
2023-05-14T09:26:36.185Z,26.83
2023-05-14T09:27:36.233Z,28.47
2023-05-14T09:28:36.285Z,30.21
2023-05-14T09:29:36.333Z,26.69
2023-05-14T09:30:36.392Z,27.67
2023-05-14T09:31:36.506Z,27.00
2023-05-14T09:32:36.597Z,28.25
2023-05-14T09:33:36.573Z,30.03
2023-05-14T09:34:36.620Z,28.76
2023-05-14T09:35:36.669Z,29.37
2023-05-14T09:36:36.725Z,29.10
2023-05-14T09:37:36.777Z,28.43
2023-05-14T09:38:36.807Z,31.39
2023-05-14T09:39:36.865Z,29.71
2023-05-14T09:40:36.912Z,28.45
2023-05-14T09:41:36.968Z,31.81
2023-05-14T09:42:37.018Z,30.79
2023-05-14T09:43:37.065Z,31.03
2023-05-14T09:44:37.103Z,30.95
2023-05-14T09:45:37.153Z,28.28
2023-05-14T09:46:37.199Z,30.15
2023-05-14T09:47:37.368Z,28.64
2023-05-14T09:48:37.364Z,31.10
2023-05-14T09:49:37.329Z,32.35
2023-05-14T09:50:37.375Z,33.26
2023-05-14T09:51:37.427Z,31.34
2023-05-14T09:52:37.494Z,30.93
2023-05-14T09:53:37.515Z,28.07
2023-05-14T09:54:37.585Z,31.08
2023-05-14T09:55:37.614Z,32.19
2023-05-14T09:56:37.659Z,27.64
2023-05-14T09:57:37.700Z,30.36
2023-05-14T09:58:37.750Z,30.41
2023-05-14T09:59:37.800Z,28.66
2023-05-14T10:00:37.848Z,30.18
2023-05-14T10:01:38.010Z,31.17
2023-05-14T10:02:38.400Z,34.16
2023-05-14T10:03:37.990Z,31.45
2023-05-14T10:04:38.078Z,31.22
2023-05-14T10:05:38.086Z,35.26
2023-05-14T10:06:38.130Z,30.90
2023-05-14T10:07:38.183Z,33.21
2023-05-14T10:08:38.228Z,28.29
2023-05-14T10:09:38.276Z,31.34
2023-05-14T10:10:38.326Z,30.90
2023-05-14T10:11:38.375Z,34.22
2023-05-14T10:12:38.421Z,34.57
2023-05-14T10:13:38.479Z,31.49
2023-05-14T10:14:38.514Z,34.36
2023-05-14T10:15:38.580Z,34.48
2023-05-14T10:16:38.719Z,36.73
2023-05-14T10:17:38.687Z,37.29
2023-05-14T10:18:38.730Z,35.02
2023-05-14T10:19:38.766Z,34.15
2023-05-14T10:20:38.839Z,37.54
2023-05-14T10:21:38.871Z,36.48
2023-05-14T10:22:38.971Z,37.59
2023-05-14T10:23:38.960Z,36.85
2023-05-14T10:24:39.037Z,34.74
2023-05-14T10:25:39.076Z,34.65
2023-05-14T10:26:39.101Z,37.53
2023-05-14T10:27:39.154Z,38.67
2023-05-14T10:28:39.570Z,39.31
2023-05-14T10:29:39.618Z,35.85
2023-05-14T10:30:39.610Z,36.05
2023-05-14T10:31:39.693Z,38.71
2023-05-14T10:32:39.641Z,38.38
2023-05-14T10:33:39.609Z,37.36
2023-05-14T10:34:39.607Z,39.34
2023-05-14T10:35:39.616Z,37.91
2023-05-14T10:36:39.665Z,39.56
2023-05-14T10:37:39.651Z,37.41
2023-05-14T10:38:39.675Z,35.25
2023-05-14T10:39:39.717Z,37.13
2023-05-14T10:40:39.749Z,34.75
2023-05-14T10:41:39.800Z,35.55
2023-05-14T10:42:39.839Z,35.93
2023-05-14T10:43:39.891Z,34.83
2023-05-14T10:44:39.949Z,36.20
2023-05-14T10:45:39.973Z,39.54
2023-05-14T10:46:40.143Z,36.99
2023-05-14T10:47:40.100Z,35.85
2023-05-14T10:48:40.509Z,38.15
2023-05-14T10:49:43.854Z,35.16
2023-05-14T10:50:40.546Z,35.47
2023-05-14T10:51:40.621Z,35.98
2023-05-14T10:52:40.545Z,36.93
2023-05-14T10:53:40.512Z,36.99
2023-05-14T10:54:40.511Z,38.43
2023-05-14T10:55:40.513Z,35.57
2023-05-14T10:56:40.473Z,36.69
2023-05-14T10:57:40.478Z,36.64
2023-05-14T10:58:40.105Z,36.49
2023-05-14T10:59:40.101Z,36.68
2023-05-14T11:00:40.092Z,39.62
2023-05-14T11:01:40.529Z,37.23
2023-05-14T11:02:40.612Z,37.75
2023-05-14T11:03:40.546Z,36.84
2023-05-14T11:04:40.536Z,39.35
2023-05-14T11:05:40.529Z,34.81
2023-05-14T11:06:40.545Z,36.60
2023-05-14T11:07:40.551Z,37.90
2023-05-14T11:08:40.580Z,40.17
2023-05-14T11:09:40.541Z,36.70
2023-05-14T11:10:40.549Z,39.79
2023-05-14T11:11:40.578Z,40.17
2023-05-14T11:12:40.659Z,39.12
2023-05-14T11:13:40.666Z,41.61
2023-05-14T11:14:40.721Z,37.90
2023-05-14T11:15:40.757Z,36.20
2023-05-14T11:16:40.811Z,32.46
2023-05-14T11:17:40.869Z,30.89
2023-05-14T11:18:40.960Z,33.38
2023-05-14T11:19:40.923Z,32.30
2023-05-14T11:20:40.952Z,33.19
2023-05-14T11:21:41.056Z,37.07
2023-05-14T11:22:41.049Z,38.99
2023-05-14T11:23:41.081Z,37.29
2023-05-14T11:24:41.134Z,30.39
2023-05-14T11:25:41.149Z,31.62
2023-05-14T11:26:41.370Z,36.73
2023-05-14T11:27:41.261Z,34.02
2023-05-14T11:28:41.282Z,36.18
2023-05-14T11:29:41.375Z,38.04
2023-05-14T11:30:41.361Z,35.67
2023-05-14T11:31:41.411Z,37.41
2023-05-14T11:32:41.631Z,36.44
2023-05-14T11:33:41.491Z,35.28
2023-05-14T11:34:41.531Z,34.81
2023-05-14T11:35:41.575Z,37.70
2023-05-14T11:36:41.615Z,37.43
2023-05-14T11:37:41.664Z,36.92
2023-05-14T11:38:41.719Z,40.57
2023-05-14T11:39:41.762Z,40.44
2023-05-14T11:40:41.837Z,41.69
2023-05-14T11:41:41.848Z,43.51
2023-05-14T11:42:41.899Z,39.69
2023-05-14T11:43:41.933Z,37.13
2023-05-14T11:44:41.976Z,36.21
2023-05-14T11:45:42.039Z,38.55
2023-05-14T11:46:42.105Z,38.23
2023-05-14T11:47:42.254Z,39.93
2023-05-14T11:48:42.160Z,40.40
2023-05-14T11:49:42.198Z,40.33
2023-05-14T11:50:42.238Z,39.83
2023-05-14T11:51:42.285Z,40.07
2023-05-14T11:52:42.324Z,40.63
2023-05-14T11:53:42.384Z,38.72
2023-05-14T11:54:42.925Z,41.40
2023-05-14T11:55:42.501Z,37.53
2023-05-14T11:56:42.520Z,44.04
2023-05-14T11:57:42.542Z,41.59
2023-05-14T11:58:42.576Z,40.32
2023-05-14T11:59:42.618Z,42.86
2023-05-14T12:00:42.679Z,39.81
2023-05-14T12:01:42.710Z,41.52
2023-05-14T12:02:42.834Z,36.18
2023-05-14T12:03:42.988Z,36.94
2023-05-14T12:04:42.921Z,34.86
2023-05-14T12:05:42.910Z,37.15
2023-05-14T12:06:42.948Z,31.39
2023-05-14T12:07:42.984Z,33.67
2023-05-14T12:08:43.021Z,37.98
2023-05-14T12:09:45.159Z,35.77
2023-05-14T12:10:43.057Z,39.25
2023-05-14T12:11:43.048Z,36.53
2023-05-14T12:12:43.066Z,32.34
2023-05-14T12:13:43.046Z,38.55
2023-05-14T12:14:43.026Z,34.29
2023-05-14T12:15:43.072Z,39.62
2023-05-14T12:16:43.156Z,42.03
2023-05-14T12:17:43.070Z,41.90
2023-05-14T12:18:43.082Z,42.38
2023-05-14T12:19:42.991Z,39.34
2023-05-14T12:20:42.979Z,39.56
2023-05-14T12:21:42.974Z,38.86
2023-05-14T12:22:42.968Z,40.42
2023-05-14T12:23:42.963Z,42.61
2023-05-14T12:24:42.949Z,42.44
2023-05-14T12:25:42.951Z,43.17
2023-05-14T12:26:42.934Z,42.84
2023-05-14T12:27:42.928Z,40.82
2023-05-14T12:28:42.945Z,44.71
2023-05-14T12:29:42.911Z,41.91
2023-05-14T12:30:42.907Z,43.49
2023-05-14T12:31:42.902Z,43.57
2023-05-14T12:32:42.960Z,43.85
2023-05-14T12:33:42.890Z,45.70
2023-05-14T12:34:42.877Z,46.14
2023-05-14T12:35:42.869Z,49.69
2023-05-14T12:36:42.864Z,47.12
2023-05-14T12:37:42.864Z,46.71
2023-05-14T12:38:42.937Z,45.68
2023-05-14T12:39:42.942Z,45.97
2023-05-14T12:40:43.017Z,48.00
2023-05-14T12:41:43.050Z,46.51
2023-05-14T12:42:43.112Z,47.86
2023-05-14T12:43:43.143Z,46.47
2023-05-14T12:44:43.219Z,47.07
2023-05-14T12:45:43.233Z,45.33
2023-05-14T12:46:43.333Z,47.59
2023-05-14T12:47:43.389Z,47.27
2023-05-14T12:48:43.384Z,48.01
2023-05-14T12:49:43.456Z,48.96
2023-05-14T12:50:43.484Z,46.16
2023-05-14T12:51:43.556Z,48.98
2023-05-14T12:52:43.573Z,50.01